Time;durP1;ratioP1;P1;durP2;ratioP2;P2;SDS_P1;SDS_P2;PMS_P1;PMS_P2;Temp;Humidity;BMP_temperature;BMP_pressure;BME280_temperature;BME280_humidity;BME280_pressure;Samples;Min_cycle;Max_cycle;Signal;HPM_P1;HPM_P2
2023/02/03 00:01:45;;;;;;;;;;;;;;;10.51;45.36;101376.75;4900117;28;128156;-67
2023/02/03 00:04:10;;;;;;;;;;;;;;;10.55;45.68;101377.88;4889431;28;98421;-67
2023/02/03 00:06:36;;;;;;;;;;;;;;;10.59;46.02;101383.63;4876304;28;126756;-67
2023/02/03 00:09:02;;;;;;;;;;;;;;;10.62;45.78;101372.34;4903316;28;115808;-66
2023/02/03 00:11:29;;;;;;;;;;;;;;;10.65;45.87;101366.44;4907940;28;98259;-66
2023/02/03 00:13:55;;;;;;;;;;;;;;;10.67;46.01;101362.44;4901702;28;124848;-66
2023/02/03 00:16:21;;;;;;;;;;;;;;;10.69;45.85;101354.94;4887603;28;127051;-67
2023/02/03 00:18:46;;;;;;;;;;;;;;;10.73;46.18;101357.97;4893211;28;117427;-67
2023/02/03 00:21:14;;;;;;;;;;;;;;;10.75;45.58;101358.50;4883784;28;128310;-67
2023/02/03 00:23:40;;;;;;;;;;;;;;;10.74;45.61;101344.22;4901881;28;98371;-67
2023/02/03 00:26:11;;;;;;;;;;;;;;;10.76;45.98;101346.66;4885061;28;115795;-67
2023/02/03 00:28:37;;;;;;;;;;;;;;;10.76;45.53;101349.34;4914537;28;112548;-67
2023/02/03 00:31:03;;;;;;;;;;;;;;;10.77;45.89;101345.63;4887112;28;98255;-66
2023/02/03 00:33:29;;;;;;;;;;;;;;;10.77;46.19;101346.44;4889533;28;122354;-67
2023/02/03 00:35:54;;;;;;;;;;;;;;;10.77;45.79;101346.44;4904393;28;98045;-69
2023/02/03 00:38:20;;;;;;;;;;;;;;;10.77;45.75;101338.34;4901806;28;98053;-67
2023/02/03 00:40:53;;;;;;;;;;;;;;;10.77;45.79;101335.63;4889615;28;127734;-66
2023/02/03 00:43:19;;;;;;;;;;;;;;;10.77;46.00;101330.25;4901797;28;98294;-66
2023/02/03 00:45:45;;;;;;;;;;;;;;;10.77;45.78;101324.84;4902734;28;103628;-65
2023/02/03 00:48:11;;;;;;;;;;;;;;;10.76;45.62;101315.09;4900839;28;117169;-66
2023/02/03 00:50:37;;;;;;;;;;;;;;;10.77;45.91;101311.38;4914511;28;98700;-67
2023/02/03 00:53:03;;;;;;;;;;;;;;;10.77;45.98;101314.06;4915215;28;128427;-66
2023/02/03 00:55:29;;;;;;;;;;;;;;;10.78;45.80;101312.19;4885178;28;129898;-65
2023/02/03 00:57:55;;;;;;;;;;;;;;;10.76;45.76;101307.03;4917624;28;116653;-65
2023/02/03 01:00:20;;;;;;;;;;;;;;;10.76;46.04;101296.22;4882426;28;130428;-65
2023/02/03 01:02:47;;;;;;;;;;;;;;;10.76;45.71;101292.72;4903412;28;128825;-65
2023/02/03 01:05:12;;;;;;;;;;;;;;;10.74;46.05;101284.09;4896967;28;102126;-66
2023/02/03 01:07:38;;;;;;;;;;;;;;;10.74;45.62;101273.28;4904584;28;117122;-66
2023/02/03 01:10:05;;;;;;;;;;;;;;;10.75;45.62;101258.75;4883129;28;98665;-66
2023/02/03 01:12:31;;;;;;;;;;;;;;;10.74;45.48;101254.41;4914764;28;98399;-66
2023/02/03 01:14:57;;;;;;;;;;;;;;;10.73;45.88;101244.69;4900266;28;113436;-66
2023/02/03 01:17:23;;;;;;;;;;;;;;;10.73;45.73;101242.00;4888053;28;98151;-65
2023/02/03 01:19:50;;;;;;;;;;;;;;;10.74;46.20;101243.63;4891322;28;115608;-65
2023/02/03 01:22:16;;;;;;;;;;;;;;;10.74;46.22;101238.25;4888636;28;99842;-66
2023/02/03 01:24:41;;;;;;;;;;;;;;;10.72;45.69;101237.66;4890310;28;127814;-66
2023/02/03 01:27:07;;;;;;;;;;;;;;;10.72;46.06;101232.25;4907175;28;115585;-66
2023/02/03 01:29:33;;;;;;;;;;;;;;;10.71;45.67;101207.19;4887892;28;129061;-66
2023/02/03 01:31:59;;;;;;;;;;;;;;;10.72;46.22;101205.31;4903515;28;128034;-67
2023/02/03 01:34:25;;;;;;;;;;;;;;;10.72;45.89;101213.38;4901521;28;129374;-66
2023/02/03 01:36:51;;;;;;;;;;;;;;;10.70;45.97;101213.66;4892986;28;118441;-66
2023/02/03 01:39:17;;;;;;;;;;;;;;;10.71;45.93;101206.38;4887756;28;127284;-66
2023/02/03 01:41:43;;;;;;;;;;;;;;;10.70;45.81;101207.44;4886432;28;97968;-66
2023/02/03 01:44:34;;;;;;;;;;;;;;;10.70;46.01;101202.88;4866558;28;97999;-66
2023/02/03 01:47:00;;;;;;;;;;;;;;;10.70;46.21;101202.88;4915169;28;97875;-66
2023/02/03 01:49:28;;;;;;;;;;;;;;;10.69;46.00;101195.00;4896353;28;129556;-66
2023/02/03 01:51:54;;;;;;;;;;;;;;;10.68;46.21;101185.28;4903488;28;118914;-66
2023/02/03 01:54:25;;;;;;;;;;;;;;;10.68;45.97;101178.03;4890380;28;102591;-66
2023/02/03 01:57:00;;;;;;;;;;;;;;;10.67;46.19;101173.69;4903960;28;97782;-66
2023/02/03 01:59:25;;;;;;;;;;;;;;;10.66;45.89;101163.19;4902885;28;126731;-66
2023/02/03 02:01:51;;;;;;;;;;;;;;;10.66;45.77;101157.78;4892291;28;119868;-66
2023/02/03 02:04:17;;;;;;;;;;;;;;;10.66;45.57;101149.69;4882160;28;127177;-66
2023/02/03 02:06:46;;;;;;;;;;;;;;;10.65;46.06;101142.66;4881334;28;116746;-65
2023/02/03 02:09:12;;;;;;;;;;;;;;;10.64;46.13;101139.13;4878274;28;97927;-66
2023/02/03 02:11:38;;;;;;;;;;;;;;;10.63;46.13;101148.31;4904516;28;98554;-66
2023/02/03 02:14:04;;;;;;;;;;;;;;;10.62;45.62;101146.69;4812575;28;1865464;-66
2023/02/03 02:16:55;;;;;;;;;;;;;;;10.63;45.81;101148.31;4901412;28;116676;-66
2023/02/03 02:19:37;;;;;;;;;;;;;;;10.62;45.99;101144.00;4916179;28;104924;-66
2023/02/03 02:22:18;;;;;;;;;;;;;;;10.63;45.67;101137.53;4919299;28;123193;-66
2023/02/03 02:24:59;;;;;;;;;;;;;;;10.62;45.99;101110.81;4919157;28;99227;-66
2023/02/03 02:28:00;;;;;;;;;;;;;;;10.62;45.67;101105.44;4922313;28;97930;-67
2023/02/03 02:30:51;;;;;;;;;;;;;;;10.60;45.69;101097.56;4908753;28;98249;-66
2023/02/03 02:33:27;;;;;;;;;;;;;;;10.61;45.73;101088.44;4905172;28;98221;-65
2023/02/03 02:36:07;;;;;;;;;;;;;;;10.60;45.48;101085.97;4920468;28;98423;-65
2023/02/03 02:38:45;;;;;;;;;;;;;;;10.60;45.49;101075.19;4902075;28;113436;-66
2023/02/03 02:41:26;;;;;;;;;;;;;;;10.59;45.88;101070.88;4917767;28;98465;-66
2023/02/03 02:44:25;;;;;;;;;;;;;;;10.60;46.06;101053.63;4917092;28;114760;-66
2023/02/03 02:46:53;;;;;;;;;;;;;;;10.60;45.85;101048.25;4897504;28;124383;-66
2023/02/03 02:49:27;;;;;;;;;;;;;;;10.60;45.97;101035.56;4903995;28;116957;-66
2023/02/03 02:51:53;;;;;;;;;;;;;;;10.58;46.02;101018.84;4901244;28;99936;-66
2023/02/03 02:54:21;;;;;;;;;;;;;;;10.59;46.00;101004.28;4900216;28;127407;-67
2023/02/03 02:56:50;;;;;;;;;;;;;;;10.60;45.93;101002.41;4902350;28;106433;-66
2023/02/03 02:59:16;;;;;;;;;;;;;;;10.60;45.77;101005.91;4885771;28;98660;-66
2023/02/03 03:01:43;;;;;;;;;;;;;;;10.60;46.16;100997.00;4900100;28;128322;-66
2023/02/03 03:04:10;;;;;;;;;;;;;;;10.59;45.51;100985.44;4881502;28;98398;-66
2023/02/03 03:06:39;;;;;;;;;;;;;;;10.60;45.91;100978.16;4887347;28;98069;-66
2023/02/03 03:09:21;;;;;;;;;;;;;;;10.60;45.95;100978.94;4887298;28;116940;-66
2023/02/03 03:11:50;;;;;;;;;;;;;;;10.60;46.11;100973.56;4901486;28;109033;-67
2023/02/03 03:14:17;;;;;;;;;;;;;;;10.60;45.69;100968.16;4911466;28;98331;-66
2023/02/03 03:16:45;;;;;;;;;;;;;;;10.60;45.97;100970.88;4901359;28;115030;-66
2023/02/03 03:19:17;;;;;;;;;;;;;;;10.60;46.20;100961.97;4901517;28;102415;-66
2023/02/03 03:21:57;;;;;;;;;;;;;;;10.61;45.74;100968.97;4896287;28;120474;-66
2023/02/03 03:24:31;;;;;;;;;;;;;;;10.60;45.85;100956.56;4890412;28;99880;-66
2023/02/03 03:27:03;;;;;;;;;;;;;;;10.61;45.54;100947.41;4881261;28;121942;-65
2023/02/03 03:29:40;;;;;;;;;;;;;;;10.60;45.98;100949.31;4902531;28;100133;-65
2023/02/03 03:32:06;;;;;;;;;;;;;;;10.60;45.52;100933.13;4897328;28;98034;-66
2023/02/03 03:34:32;;;;;;;;;;;;;;;10.60;46.00;100911.56;4882497;28;122859;-66
2023/02/03 03:37:50;;;;;;;;;;;;;;;10.61;45.54;100906.97;4867592;28;98921;-65
2023/02/03 03:40:29;;;;;;;;;;;;;;;10.62;46.15;100911.31;4913972;28;97984;-65
2023/02/03 03:43:00;;;;;;;;;;;;;;;10.61;45.83;100917.75;4895342;28;98250;-67
2023/02/03 03:45:52;;;;;;;;;;;;;;;10.62;45.95;100905.94;4889806;28;98443;-66
2023/02/03 03:48:42;;;;;;;;;;;;;;;10.61;45.56;100902.41;4910744;28;98431;-65
2023/02/03 03:51:32;;;;;;;;;;;;;;;10.60;45.73;100894.56;4896202;28;98215;-66
2023/02/03 03:54:02;;;;;;;;;;;;;;;10.60;46.30;100890.00;4902332;28;98922;-66
2023/02/03 03:56:31;;;;;;;;;;;;;;;10.61;45.81;100866.53;4901957;28;119012;-65
2023/02/03 03:58:57;;;;;;;;;;;;;;;10.60;45.99;100857.63;4899742;28;98392;-65
2023/02/03 04:01:22;;;;;;;;;;;;;;;10.60;45.99;100851.44;4914783;28;116511;-66
2023/02/03 04:03:51;;;;;;;;;;;;;;;10.60;45.69;100854.94;4886194;28;128550;-66
2023/02/03 04:06:17;;;;;;;;;;;;;;;10.60;46.03;100846.84;4885154;28;120225;-66
2023/02/03 04:08:43;;;;;;;;;;;;;;;10.61;45.79;100853.91;4884107;28;128840;-66
2023/02/03 04:11:09;;;;;;;;;;;;;;;10.61;45.73;100834.19;4916226;28;98014;-67
2023/02/03 04:13:35;;;;;;;;;;;;;;;10.61;45.51;100831.50;4898947;28;128600;-66
2023/02/03 04:16:01;;;;;;;;;;;;;;;10.62;45.98;100836.66;4914424;28;128196;-66
2023/02/03 04:18:27;;;;;;;;;;;;;;;10.62;45.52;100835.84;4882571;28;127137;-66
2023/02/03 04:20:53;;;;;;;;;;;;;;;10.62;45.86;100839.34;4902186;28;119466;-67
2023/02/03 04:23:19;;;;;;;;;;;;;;;10.64;45.79;100818.31;4896854;28;125240;-66
2023/02/03 04:25:45;;;;;;;;;;;;;;;10.64;45.56;100812.09;4897846;28;127738;-68
2023/02/03 04:28:10;;;;;;;;;;;;;;;10.64;45.80;100814.81;4883646;28;119918;-66
2023/02/03 04:30:36;;;;;;;;;;;;;;;10.65;45.68;100809.19;4899622;28;117771;-67
2023/02/03 04:33:02;;;;;;;;;;;;;;;10.67;45.56;100814.28;4897348;28;129106;-67
2023/02/03 04:35:28;;;;;;;;;;;;;;;10.67;46.19;100815.09;4896415;28;119113;-67
2023/02/03 04:37:54;;;;;;;;;;;;;;;10.68;45.70;100816.72;4890485;28;99428;-67
2023/02/03 04:40:20;;;;;;;;;;;;;;;10.69;45.85;100812.97;4906611;28;117044;-66
2023/02/03 04:42:46;;;;;;;;;;;;;;;10.71;45.83;100813.50;4905510;28;111485;-66
2023/02/03 04:45:12;;;;;;;;;;;;;;;10.72;45.84;100815.13;4886015;28;127121;-66
2023/02/03 04:47:38;;;;;;;;;;;;;;;10.73;45.55;100815.97;4901433;28;97973;-67
2023/02/03 04:50:04;;;;;;;;;;;;;;;10.74;45.58;100817.59;4908470;28;97931;-67
2023/02/03 04:52:30;;;;;;;;;;;;;;;10.76;46.01;100818.94;4883139;28;112856;-67
2023/02/03 04:54:56;;;;;;;;;;;;;;;10.77;45.87;100800.91;4885865;28;99290;-66
2023/02/03 04:57:22;;;;;;;;;;;;;;;10.79;45.71;100804.94;4900013;28;126940;-66
2023/02/03 04:59:48;;;;;;;;;;;;;;;10.81;45.68;100810.09;4887708;28;101052;-66
2023/02/03 05:02:14;;;;;;;;;;;;;;;10.82;45.84;100798.22;4880501;28;127396;-66
2023/02/03 05:04:40;;;;;;;;;;;;;;;10.84;45.73;100793.34;4897187;28;127922;-67
2023/02/03 05:07:06;;;;;;;;;;;;;;;10.86;45.58;100776.94;4887261;28;129747;-67
2023/02/03 05:09:32;;;;;;;;;;;;;;;10.87;45.77;100783.94;4902896;28;101281;-67
2023/02/03 05:11:58;;;;;;;;;;;;;;;10.89;45.92;100779.13;4882288;28;128597;-67
2023/02/03 05:14:23;;;;;;;;;;;;;;;10.91;45.99;100785.84;4913434;28;125990;-67
2023/02/03 05:16:49;;;;;;;;;;;;;;;10.92;45.55;100775.88;4906016;28;99469;-67
2023/02/03 05:19:15;;;;;;;;;;;;;;;10.95;45.73;100783.44;4902171;28;99380;-68
2023/02/03 05:21:41;;;;;;;;;;;;;;;10.96;45.66;100768.88;4899744;28;125937;-67
2023/02/03 05:24:07;;;;;;;;;;;;;;;10.97;45.73;100752.44;4875457;28;128199;-68
2023/02/03 05:26:34;;;;;;;;;;;;;;;10.98;45.69;100739.78;4902068;28;99488;-67
2023/02/03 05:29:00;;;;;;;;;;;;;;;11.00;46.11;100733.06;4900110;28;110377;-67
2023/02/03 05:31:26;;;;;;;;;;;;;;;11.01;45.82;100726.56;4900402;28;104558;-67
2023/02/03 05:33:52;;;;;;;;;;;;;;;11.02;45.99;100720.09;4882605;28;127581;-67
2023/02/03 05:36:18;;;;;;;;;;;;;;;11.05;45.71;100733.06;4896655;28;112920;-67
2023/02/03 05:38:44;;;;;;;;;;;;;;;11.06;45.62;100731.16;4891046;28;116483;-67
2023/02/03 05:43:55;;;;;;;;;;;;;;;11.10;45.75;100753.03;4901332;28;98182;-67
2023/02/03 05:46:21;;;;;;;;;;;;;;;11.12;45.54;100753.56;4915550;28;126888;-68
2023/02/03 05:48:47;;;;;;;;;;;;;;;11.12;46.00;100729.28;4908163;28;98229;-67
2023/02/03 05:51:13;;;;;;;;;;;;;;;11.12;45.68;100724.72;4885477;28;127649;-67
2023/02/03 05:53:38;;;;;;;;;;;;;;;11.13;45.53;100712.06;4885304;28;124325;-67
2023/02/03 05:56:05;;;;;;;;;;;;;;;11.14;45.94;100710.97;4901616;28;130130;-67
2023/02/03 05:58:30;;;;;;;;;;;;;;;11.16;45.72;100712.34;4884700;28;109423;-68
2023/02/03 06:00:56;;;;;;;;;;;;;;;11.17;45.90;100710.44;4903993;28;128328;-67
2023/02/03 06:03:22;;;;;;;;;;;;;;;11.17;45.76;100718.53;4901123;28;126977;-67
2023/02/03 06:05:48;;;;;;;;;;;;;;;11.18;45.73;100714.75;4890232;28;97921;-67
2023/02/03 06:08:14;;;;;;;;;;;;;;;11.17;46.07;100708.56;4902431;28;97910;-67
2023/02/03 06:10:40;;;;;;;;;;;;;;;11.17;46.01;100705.84;4901395;28;128671;-68
2023/02/03 06:13:14;;;;;;;;;;;;;;;11.18;45.98;100702.06;4889073;28;128672;-67
2023/02/03 06:15:40;;;;;;;;;;;;;;;11.19;45.67;100700.19;4904166;28;99210;-67
2023/02/03 06:18:07;;;;;;;;;;;;;;;11.21;46.07;100692.66;4922701;28;109144;-67
2023/02/03 06:20:33;;;;;;;;;;;;;;;11.22;46.07;100688.88;4888177;28;99513;-67
2023/02/03 06:22:59;;;;;;;;;;;;;;;11.21;46.12;100679.16;4889333;28;98005;-67
2023/02/03 06:25:25;;;;;;;;;;;;;;;11.23;45.86;100685.88;4914756;28;115187;-67
2023/02/03 06:27:51;;;;;;;;;;;;;;;11.24;46.08;100676.75;4905460;28;98238;-67
2023/02/03 06:30:17;;;;;;;;;;;;;;;11.25;45.68;100669.44;4886663;28;99258;-67
2023/02/03 06:32:43;;;;;;;;;;;;;;;11.26;46.11;100673.75;4902094;28;99043;-67
2023/02/03 06:35:09;;;;;;;;;;;;;;;11.25;45.83;100672.16;4890270;28;123100;-68
2023/02/03 06:37:35;;;;;;;;;;;;;;;11.27;46.04;100665.38;4905855;28;117564;-67
2023/02/03 06:40:01;;;;;;;;;;;;;;;11.27;45.78;100651.09;4906183;28;98238;-66
2023/02/03 06:42:27;;;;;;;;;;;;;;;11.29;45.79;100643.56;4917155;28;99895;-66
2023/02/03 06:44:53;;;;;;;;;;;;;;;11.30;45.98;100642.47;4867462;28;129940;-66
2023/02/03 06:47:19;;;;;;;;;;;;;;;11.30;45.88;100642.47;4908185;28;98285;-66
2023/02/03 06:49:45;;;;;;;;;;;;;;;11.31;46.07;100625.19;4919078;28;128067;-66
2023/02/03 06:52:11;;;;;;;;;;;;;;;11.33;45.99;100627.63;4920240;28;126094;-67
2023/02/03 06:54:37;;;;;;;;;;;;;;;11.31;46.12;100631.38;4913587;28;126262;-66
2023/02/03 06:57:03;;;;;;;;;;;;;;;11.35;45.92;100633.56;4904900;28;98012;-67
2023/02/03 06:59:29;;;;;;;;;;;;;;;11.35;45.99;100628.16;4893083;28;113577;-67
2023/02/03 07:01:56;;;;;;;;;;;;;;;11.36;45.84;100622.53;4904685;28;128141;-66
2023/02/03 07:04:21;;;;;;;;;;;;;;;11.37;45.72;100621.44;4922274;28;98103;-67
2023/02/03 07:06:47;;;;;;;;;;;;;;;11.38;46.04;100620.34;4901267;28;117500;-66
2023/02/03 07:09:13;;;;;;;;;;;;;;;11.41;45.95;100624.41;4880774;28;115761;-67
2023/02/03 07:11:39;;;;;;;;;;;;;;;11.41;45.79;100619.00;4885790;28;98892;-68
2023/02/03 07:14:05;;;;;;;;;;;;;;;11.42;45.91;100613.31;4906446;28;128299;-67
2023/02/03 07:16:33;;;;;;;;;;;;;;;11.43;45.82;100606.84;4889092;28;116850;-66
2023/02/03 07:18:59;;;;;;;;;;;;;;;11.46;45.96;100619.00;4918354;28;98466;-67
2023/02/03 07:21:25;;;;;;;;;;;;;;;11.46;45.89;100606.31;4903885;28;98029;-67
2023/02/03 07:23:50;;;;;;;;;;;;;;;11.48;45.91;100609.56;4916579;28;99181;-67
2023/02/03 07:26:17;;;;;;;;;;;;;;;11.50;45.75;100609.28;4903684;28;106926;-66
2023/02/03 07:28:43;;;;;;;;;;;;;;;11.50;45.85;100593.91;4900297;28;98594;-66
2023/02/03 07:31:09;;;;;;;;;;;;;;;11.51;45.66;100600.94;4919084;28;130798;-67
2023/02/03 07:33:36;;;;;;;;;;;;;;;11.52;45.90;100580.16;4904604;28;97987;-67
2023/02/03 07:36:02;;;;;;;;;;;;;;;11.54;46.03;100584.19;4901024;28;98084;-67
2023/02/03 07:38:28;;;;;;;;;;;;;;;11.55;45.84;100582.28;4886184;28;112201;-67
2023/02/03 07:40:54;;;;;;;;;;;;;;;11.57;45.63;100584.72;4901733;28;128004;-66
2023/02/03 07:43:20;;;;;;;;;;;;;;;11.57;45.91;100585.53;4903185;28;111038;-66
2023/02/03 07:45:46;;;;;;;;;;;;;;;11.59;45.89;100585.25;4888858;28;98081;-66
2023/02/03 07:48:12;;;;;;;;;;;;;;;11.60;45.91;100585.00;4911874;28;127397;-66
2023/02/03 07:50:38;;;;;;;;;;;;;;;11.63;45.89;100586.31;4911849;28;114662;-66
2023/02/03 07:53:05;;;;;;;;;;;;;;;11.64;45.86;100582.56;4911148;28;98100;-66
2023/02/03 07:55:31;;;;;;;;;;;;;;;11.64;45.81;100575.28;4916947;28;97923;-66
2023/02/03 07:57:57;;;;;;;;;;;;;;;11.67;45.71;100582.00;4877859;28;99831;-66
2023/02/03 08:00:23;;;;;;;;;;;;;;;11.68;45.99;100579.06;4917577;28;98932;-66
2023/02/03 08:02:49;;;;;;;;;;;;;;;11.69;45.76;100575.25;4906262;28;126030;-66
2023/02/03 08:05:15;;;;;;;;;;;;;;;11.71;45.90;100577.69;4881283;28;117380;-66
2023/02/03 08:07:41;;;;;;;;;;;;;;;11.71;46.04;100570.41;4906436;28;99957;-65
2023/02/03 08:10:08;;;;;;;;;;;;;;;11.72;45.86;100577.41;4886799;28;112593;-65
2023/02/03 08:12:33;;;;;;;;;;;;;;;11.74;46.16;100567.13;4902349;28;98749;-66
2023/02/03 08:14:59;;;;;;;;;;;;;;;11.76;46.01;100569.59;4900212;28;116471;-65
2023/02/03 08:17:25;;;;;;;;;;;;;;;11.77;45.87;100563.91;4886343;28;100314;-65
2023/02/03 08:19:51;;;;;;;;;;;;;;;11.78;45.90;100562.81;4868912;28;116716;-65
2023/02/03 08:22:18;;;;;;;;;;;;;;;11.78;45.69;100553.91;4904333;28;127563;-66
2023/02/03 08:24:45;;;;;;;;;;;;;;;11.80;45.88;100549.88;4887574;28;98118;-66
2023/02/03 08:27:15;;;;;;;;;;;;;;;11.83;45.89;100542.28;4883143;28;99924;-67
2023/02/03 08:29:42;;;;;;;;;;;;;;;11.83;45.67;100536.88;4889523;28;97968;-67
2023/02/03 08:32:16;;;;;;;;;;;;;;;11.85;45.86;100524.75;4884651;28;98864;-68
2023/02/03 08:34:42;;;;;;;;;;;;;;;11.85;45.88;100527.47;4900827;28;97868;-67
2023/02/03 08:37:08;;;;;;;;;;;;;;;11.86;45.87;100525.56;4882271;28;102516;-67
2023/02/03 08:39:34;;;;;;;;;;;;;;;11.87;45.96;100525.31;4885675;28;119881;-67
2023/02/03 08:42:02;;;;;;;;;;;;;;;11.87;45.91;100522.59;4900722;28;102461;-69
2023/02/03 08:44:29;;;;;;;;;;;;;;;11.89;45.77;100511.53;4901585;28;98080;-67
2023/02/03 08:46:55;;;;;;;;;;;;;;;11.90;45.90;100519.34;4900523;28;98490;-67
2023/02/03 08:49:21;;;;;;;;;;;;;;;11.92;45.80;100519.06;4884646;28;127897;-67
2023/02/03 08:51:47;;;;;;;;;;;;;;;11.92;45.96;100506.38;4903634;28;100126;-66
2023/02/03 08:54:13;;;;;;;;;;;;;;;11.94;45.60;100492.59;4886488;28;97910;-66
2023/02/03 08:56:39;;;;;;;;;;;;;;;11.97;45.88;100492.03;4900731;28;98038;-67
2023/02/03 08:59:05;;;;;;;;;;;;;;;11.99;45.99;100498.00;4900836;28;98297;-66
2023/02/03 09:01:31;;;;;;;;;;;;;;;12.00;45.67;100496.91;4902073;28;98115;-66
2023/02/03 09:03:57;;;;;;;;;;;;;;;12.02;45.80;100492.84;4901552;28;117316;-66
2023/02/03 09:06:23;;;;;;;;;;;;;;;12.03;45.82;100489.06;4886491;28;127502;-66
2023/02/03 09:08:49;;;;;;;;;;;;;;;12.05;45.97;100483.38;4917721;28;107152;-66
2023/02/03 09:11:16;;;;;;;;;;;;;;;12.06;45.80;100486.88;4900117;28;127248;-67
2023/02/03 09:13:44;;;;;;;;;;;;;;;12.05;45.94;100475.25;4898874;28;112690;-66
2023/02/03 09:16:15;;;;;;;;;;;;;;;12.06;45.88;100476.88;4898993;28;98727;-66
2023/02/03 09:18:42;;;;;;;;;;;;;;;12.06;45.81;100476.88;4881128;28;98301;-67
2023/02/03 09:21:10;;;;;;;;;;;;;;;12.07;45.88;100461.50;4885692;28;98024;-66
2023/02/03 09:23:36;;;;;;;;;;;;;;;12.07;45.78;100440.69;4891974;28;98642;-67
2023/02/03 09:26:06;;;;;;;;;;;;;;;12.09;45.91;100443.09;4906424;28;115538;-67
2023/02/03 09:28:32;;;;;;;;;;;;;;;12.10;45.87;100432.00;4888066;28;98070;-66
2023/02/03 09:31:02;;;;;;;;;;;;;;;12.12;45.99;100426.34;4904996;28;98110;-66
2023/02/03 09:33:27;;;;;;;;;;;;;;;12.12;45.88;100405.53;4886463;28;104869;-66
2023/02/03 09:35:54;;;;;;;;;;;;;;;12.13;45.87;100411.72;4888699;28;121349;-66
2023/02/03 09:38:20;;;;;;;;;;;;;;;12.14;45.51;100408.75;4902974;28;101383;-66
2023/02/03 09:40:53;;;;;;;;;;;;;;;12.14;45.82;100399.81;4906210;28;98645;-66
2023/02/03 09:43:35;;;;;;;;;;;;;;;12.15;45.67;100398.75;4903661;28;97886;-66
2023/02/03 09:46:04;;;;;;;;;;;;;;;12.13;45.85;100404.44;4898553;28;98268;-66
2023/02/03 09:48:43;;;;;;;;;;;;;;;12.14;45.94;100397.13;4885923;28;118142;-66
2023/02/03 09:51:26;;;;;;;;;;;;;;;12.15;45.78;100377.16;4892251;28;98053;-66
2023/02/03 09:53:59;;;;;;;;;;;;;;;12.15;45.98;100374.44;4886296;28;98070;-66
2023/02/03 09:56:35;;;;;;;;;;;;;;;12.16;45.96;100376.06;4902120;28;121908;-66
2023/02/03 09:59:01;;;;;;;;;;;;;;;12.17;45.87;100369.56;4887506;28;124472;-66
2023/02/03 10:01:53;;;;;;;;;;;;;;;12.18;45.85;100372.00;4889812;28;98607;-66
2023/02/03 10:04:36;;;;;;;;;;;;;;;12.19;45.60;100357.38;4919002;28;98095;-66
2023/02/03 10:07:32;;;;;;;;;;;;;;;12.24;45.97;100351.13;4916950;28;100052;-65
2023/02/03 10:10:08;;;;;;;;;;;;;;;12.25;45.90;100352.75;4891687;28;98238;-65
2023/02/03 10:12:46;;;;;;;;;;;;;;;12.26;45.83;100351.66;4898988;28;121311;-65
2023/02/03 10:15:22;;;;;;;;;;;;;;;12.26;45.90;100333.56;4919421;28;114468;-66
2023/02/03 10:17:56;;;;;;;;;;;;;;;12.31;45.91;100327.31;4903320;28;100435;-65
2023/02/03 10:20:28;;;;;;;;;;;;;;;12.32;45.83;100334.31;4903946;28;126642;-66
2023/02/03 10:23:03;;;;;;;;;;;;;;;12.34;45.76;100323.22;4903956;28;127967;-65
2023/02/03 10:25:40;;;;;;;;;;;;;;;12.34;45.88;100325.91;4878467;28;114278;-65
2023/02/03 10:28:40;;;;;;;;;;;;;;;12.34;46.01;100320.50;4916962;28;98979;-66
2023/02/03 10:31:14;;;;;;;;;;;;;;;12.33;45.93;100317.00;4886493;28;118566;-66
2023/02/03 10:33:40;;;;;;;;;;;;;;;12.34;45.75;100312.41;4890274;28;98855;-66
2023/02/03 10:36:30;;;;;;;;;;;;;;;12.36;46.06;100304.84;4895618;28;111479;-66
2023/02/03 10:39:29;;;;;;;;;;;;;;;12.36;45.91;100296.72;4917123;28;98063;-66
2023/02/03 10:41:55;;;;;;;;;;;;;;;12.36;45.94;100296.72;4900450;28;108084;-67
2023/02/03 10:44:22;;;;;;;;;;;;;;;12.34;45.95;100275.41;4891495;28;114462;-66
2023/02/03 10:46:48;;;;;;;;;;;;;;;12.34;45.99;100275.41;4887948;28;100311;-66
2023/02/03 10:49:15;;;;;;;;;;;;;;;12.34;45.99;100272.69;4884457;28;127856;-66
2023/02/03 10:51:49;;;;;;;;;;;;;;;12.34;45.99;100267.28;4888637;28;99519;-67
2023/02/03 10:54:32;;;;;;;;;;;;;;;12.34;46.00;100259.19;4887715;28;114495;-65
2023/02/03 10:57:02;;;;;;;;;;;;;;;12.34;45.99;100259.19;4901221;28;98333;-66
2023/02/03 10:59:30;;;;;;;;;;;;;;;12.34;46.05;100264.59;4903504;28;99548;-65
2023/02/03 11:01:56;;;;;;;;;;;;;;;12.37;46.08;100265.91;4888004;28;121089;-65
2023/02/03 11:04:30;;;;;;;;;;;;;;;12.37;46.01;100258.59;4885528;28;110226;-66
2023/02/03 11:07:02;;;;;;;;;;;;;;;12.39;46.03;100259.13;4888016;28;97969;-65
2023/02/03 11:09:37;;;;;;;;;;;;;;;12.42;45.87;100247.75;4905622;28;100025;-66
2023/02/03 11:12:19;;;;;;;;;;;;;;;12.45;46.05;100257.16;4908148;28;98413;-67
2023/02/03 11:14:49;;;;;;;;;;;;;;;12.44;46.04;100250.16;4902234;28;128347;-66
2023/02/03 11:17:22;;;;;;;;;;;;;;;12.47;45.76;100244.19;4901372;28;98093;-66
2023/02/03 11:19:52;;;;;;;;;;;;;;;12.45;45.96;100239.03;4892481;28;98006;-65
2023/02/03 11:22:37;;;;;;;;;;;;;;;12.47;45.91;100227.97;4885608;28;97987;-66
2023/02/03 11:25:04;;;;;;;;;;;;;;;12.46;45.74;100213.66;4906412;28;112644;-66
2023/02/03 11:27:31;;;;;;;;;;;;;;;12.48;45.87;100191.72;4901778;28;97974;-65
2023/02/03 11:30:15;;;;;;;;;;;;;;;12.52;45.60;100171.13;4900820;28;114739;-66
2023/02/03 11:32:41;;;;;;;;;;;;;;;12.56;45.74;100161.34;4889565;28;98266;-67
2023/02/03 11:35:14;;;;;;;;;;;;;;;12.60;45.81;100146.16;4887791;28;98548;-65
2023/02/03 11:37:41;;;;;;;;;;;;;;;12.60;45.72;100132.66;4901579;28;98117;-66
2023/02/03 11:40:07;;;;;;;;;;;;;;;12.59;45.74;100149.16;4888194;28;121417;-66
2023/02/03 11:42:34;;;;;;;;;;;;;;;12.60;45.68;100145.38;4915660;28;100969;-65
2023/02/03 11:45:33;;;;;;;;;;;;;;;12.56;45.84;100144.34;4899814;28;113175;-65
2023/02/03 11:48:21;;;;;;;;;;;;;;;12.53;45.78;100151.09;4878700;28;104128;-66
2023/02/03 11:51:01;;;;;;;;;;;;;;;12.50;46.01;100171.44;4919109;28;98324;-66
2023/02/03 11:53:31;;;;;;;;;;;;;;;12.47;46.05;100169.28;4919247;28;98403;-66
2023/02/03 11:56:19;;;;;;;;;;;;;;;12.43;46.00;100173.66;4902068;28;98368;-66
2023/02/03 11:58:44;;;;;;;;;;;;;;;12.41;46.15;100170.44;4902143;28;98061;-66
2023/02/03 12:01:30;;;;;;;;;;;;;;;12.41;46.06;100151.50;4914991;28;98272;-67
2023/02/03 12:04:06;;;;;;;;;;;;;;;12.40;45.94;100152.59;4921553;28;102033;-66
2023/02/03 12:06:56;;;;;;;;;;;;;;;12.39;45.94;100147.50;4899552;28;98135;-66
2023/02/03 12:09:57;;;;;;;;;;;;;;;12.37;46.00;100138.84;4918683;28;98184;-66
2023/02/03 12:12:42;;;;;;;;;;;;;;;12.34;46.03;100140.25;4904380;28;122053;-66
2023/02/03 12:15:27;;;;;;;;;;;;;;;12.32;46.05;100145.13;4915863;28;98386;-66
2023/02/03 12:18:07;;;;;;;;;;;;;;;12.31;46.10;100131.91;4917296;28;98402;-67
2023/02/03 12:20:57;;;;;;;;;;;;;;;12.31;46.11;100124.59;4883529;28;99080;-66
2023/02/03 12:23:29;;;;;;;;;;;;;;;12.33;45.96;100118.91;4920563;28;99568;-66
2023/02/03 12:26:19;;;;;;;;;;;;;;;12.33;46.08;100140.53;4922046;28;99125;-66
2023/02/03 12:28:48;;;;;;;;;;;;;;;12.31;46.09;100170.56;4903841;28;98193;-66
2023/02/03 12:31:34;;;;;;;;;;;;;;;12.29;46.14;100199.75;4920419;28;97845;-65
2023/02/03 12:34:06;;;;;;;;;;;;;;;12.28;46.14;100330.56;4918218;28;99960;-65
2023/02/03 12:36:39;;;;;;;;;;;;;;;12.29;46.22;100273.50;4918805;28;98569;-66
2023/02/03 12:39:08;;;;;;;;;;;;;;;12.29;46.37;100295.13;4901975;28;97976;-65
2023/02/03 12:41:36;;;;;;;;;;;;;;;12.29;46.12;100302.44;4899930;28;98393;-66
2023/02/03 12:44:06;;;;;;;;;;;;;;;12.27;46.13;100278.41;4898310;28;112691;-66
2023/02/03 12:46:36;;;;;;;;;;;;;;;12.28;46.02;100258.41;4900416;28;111442;-66
2023/02/03 12:49:27;;;;;;;;;;;;;;;12.27;46.31;100240.56;4886717;28;98152;-66